createdAt,value
2018-02-23T00:02:02.477Z,73.20
2018-02-23T00:04:30.103Z,72.90
2018-02-23T00:06:57.995Z,72.70
2018-02-23T00:09:25.602Z,73.30
2018-02-23T00:11:53.233Z,73.60
2018-02-23T00:14:20.826Z,73.20
2018-02-23T00:16:49.186Z,73.40
2018-02-23T00:19:16.780Z,73.40
2018-02-23T00:21:44.354Z,73.40
2018-02-23T00:24:11.939Z,73.40
2018-02-23T00:26:39.523Z,73.60
2018-02-23T00:29:07.256Z,73.80
2018-02-23T00:31:34.830Z,73.30
2018-02-23T00:34:02.422Z,73.40
2018-02-23T00:36:30.036Z,73.50
2018-02-23T00:38:57.629Z,74.10
2018-02-23T00:41:25.189Z,74.00
2018-02-23T00:43:53.178Z,74.20
2018-02-23T00:46:20.782Z,74.30
2018-02-23T00:48:48.343Z,74.20
2018-02-23T00:51:16.123Z,74.20
2018-02-23T00:53:43.710Z,74.40
2018-02-23T00:56:11.410Z,74.50
2018-02-23T00:58:39.116Z,74.80
2018-02-23T01:01:06.695Z,74.70
2018-02-23T01:03:34.262Z,74.70
2018-02-23T01:06:01.923Z,75.00
2018-02-23T01:08:29.518Z,75.00
2018-02-23T01:10:57.871Z,75.60
2018-02-23T01:13:25.483Z,75.50
2018-02-23T01:15:53.063Z,76.00
2018-02-23T01:18:20.623Z,75.60
2018-02-23T01:20:48.222Z,75.60
2018-02-23T01:23:15.798Z,75.80
2018-02-23T01:25:43.398Z,76.00
2018-02-23T01:28:11.023Z,75.80
2018-02-23T01:30:38.600Z,75.70
2018-02-23T01:33:06.202Z,75.90
2018-02-23T01:35:33.767Z,75.90
2018-02-23T01:38:01.404Z,76.20
2018-02-23T01:40:29.756Z,75.60
2018-02-23T01:42:57.327Z,75.60
2018-02-23T01:45:24.940Z,75.80
2018-02-23T01:47:52.542Z,75.80
2018-02-23T01:50:20.111Z,75.80
2018-02-23T01:52:47.723Z,75.60
2018-02-23T01:55:16.087Z,75.60
2018-02-23T01:57:43.700Z,75.60
2018-02-23T02:00:11.345Z,75.50
2018-02-23T02:02:38.974Z,75.60
2018-02-23T02:05:06.558Z,75.60
2018-02-23T02:07:34.140Z,75.90
2018-02-23T02:10:01.729Z,76.40
2018-02-23T02:12:29.292Z,76.10
2018-02-23T02:14:56.881Z,76.10
2018-02-23T02:17:24.457Z,76.70
2018-02-23T02:19:52.082Z,77.10
2018-02-23T02:22:19.678Z,76.90
2018-02-23T02:24:48.082Z,77.40
2018-02-23T02:27:15.717Z,77.10
2018-02-23T02:29:43.314Z,77.00
2018-02-23T02:32:10.919Z,77.10
2018-02-23T02:34:38.663Z,77.20
2018-02-23T02:37:06.250Z,77.30
2018-02-23T02:39:33.855Z,77.60
2018-02-23T02:42:01.471Z,77.50
2018-02-23T02:44:29.112Z,77.60
2018-02-23T02:46:56.702Z,77.60
2018-02-23T02:49:24.265Z,77.50
2018-02-23T02:51:51.865Z,77.70
2018-02-23T02:54:20.222Z,77.80
2018-02-23T02:56:47.807Z,77.80
2018-02-23T02:59:16.190Z,77.70
2018-02-23T03:01:43.756Z,77.60
2018-02-23T03:04:12.109Z,77.60
2018-02-23T03:06:39.707Z,77.50
2018-02-23T03:09:07.275Z,77.70
2018-02-23T03:11:34.882Z,78.20
2018-02-23T03:14:02.456Z,78.20
2018-02-23T03:16:30.038Z,78.30
2018-02-23T03:18:57.651Z,79.00
2018-02-23T03:21:26.005Z,78.80
2018-02-23T03:23:53.602Z,78.70
2018-02-23T03:26:21.190Z,78.90
2018-02-23T03:28:48.794Z,79.40
2018-02-23T03:31:16.384Z,79.80
2018-02-23T03:33:44.759Z,80.30
2018-02-23T03:36:12.342Z,79.70
2018-02-23T03:38:39.940Z,79.80
2018-02-23T03:41:07.517Z,80.20
2018-02-23T03:43:35.122Z,80.60
2018-02-23T03:46:02.718Z,80.40
2018-02-23T03:48:30.278Z,80.30
2018-02-23T03:50:57.871Z,81.20
2018-02-23T03:53:25.476Z,81.20
2018-02-23T03:55:53.102Z,80.90
2018-02-23T03:58:21.450Z,81.10
2018-02-23T04:00:49.035Z,81.10
2018-02-23T04:03:17.393Z,81.40
2018-02-23T04:05:44.958Z,81.40
2018-02-23T04:08:12.526Z,81.40
2018-02-23T04:10:40.109Z,81.50
2018-02-23T04:13:08.462Z,81.60
2018-02-23T04:15:36.866Z,81.80
2018-02-23T04:18:05.243Z,82.10
2018-02-23T04:20:32.830Z,82.00
2018-02-23T04:23:00.411Z,82.20
2018-02-23T04:25:28.014Z,82.30
2018-02-23T04:27:55.615Z,82.50
2018-02-23T04:30:23.200Z,82.70
2018-02-23T04:32:51.778Z,83.00
2018-02-23T04:35:19.379Z,83.00
2018-02-23T04:37:46.950Z,83.00
2018-02-23T04:40:16.078Z,83.20
2018-02-23T04:42:43.685Z,83.20
2018-02-23T04:45:11.250Z,83.10
2018-02-23T04:47:38.838Z,83.30
2018-02-23T04:50:06.422Z,83.10
2018-02-23T04:52:34.798Z,83.70
2018-02-23T04:55:02.366Z,83.70
2018-02-23T04:57:30.695Z,84.10
2018-02-23T04:59:58.290Z,83.90
2018-02-23T05:02:25.894Z,84.00
2018-02-23T05:04:53.467Z,84.10
2018-02-23T05:07:21.074Z,83.90
2018-02-23T05:09:48.630Z,84.00
2018-02-23T05:12:17.503Z,85.20
2018-02-23T05:14:45.095Z,84.50
2018-02-23T05:17:12.672Z,84.50
2018-02-23T05:19:40.988Z,85.10
2018-02-23T05:22:08.611Z,84.60
2018-02-23T05:24:36.223Z,84.60
2018-02-23T05:27:03.802Z,84.40
2018-02-23T05:29:31.398Z,84.60
2018-02-23T05:31:59.605Z,84.60
2018-02-23T05:34:27.162Z,84.60
2018-02-23T05:36:55.577Z,84.70
2018-02-23T05:39:23.182Z,84.60
2018-02-23T05:41:50.757Z,85.00
2018-02-23T05:44:19.118Z,85.10
2018-02-23T05:46:46.722Z,85.10
2018-02-23T05:49:14.331Z,85.30
2018-02-23T05:51:41.891Z,85.50
2018-02-23T05:54:09.491Z,85.60
2018-02-23T05:56:37.058Z,85.50
2018-02-23T05:59:05.395Z,85.50
2018-02-23T06:01:32.992Z,85.60
2018-02-23T06:04:01.379Z,85.70
2018-02-23T06:06:28.987Z,85.70
2018-02-23T06:08:56.589Z,85.80
2018-02-23T06:11:24.188Z,86.00
2018-02-23T06:13:51.755Z,86.20
2018-02-23T06:16:25.652Z,86.20
2018-02-23T06:19:00.336Z,86.00
2018-02-23T06:21:27.944Z,86.10
2018-02-23T06:23:55.510Z,86.10
2018-02-23T06:26:23.886Z,86.20
2018-02-23T06:28:51.450Z,86.20
2018-02-23T06:31:19.830Z,86.10
2018-02-23T06:33:47.404Z,86.10
2018-02-23T06:36:15.758Z,86.30
2018-02-23T06:38:43.331Z,86.30
2018-02-23T06:41:11.694Z,86.30
2018-02-23T06:43:39.302Z,86.20
2018-02-23T06:46:06.909Z,86.60
2018-02-23T06:48:34.477Z,86.50
2018-02-23T06:51:02.045Z,86.40
2018-02-23T06:53:29.638Z,86.50
2018-02-23T06:55:57.206Z,86.50
2018-02-23T06:58:24.798Z,86.70
2018-02-23T07:00:52.382Z,86.70
2018-02-23T07:03:20.003Z,86.70
2018-02-23T07:05:47.612Z,86.50
2018-02-23T07:08:15.178Z,86.70
2018-02-23T07:10:42.749Z,86.70
2018-02-23T07:13:10.396Z,87.00
2018-02-23T07:15:38.008Z,87.20
2018-02-23T07:18:05.611Z,87.20
2018-02-23T07:20:33.236Z,87.20
2018-02-23T07:23:00.821Z,87.40
2018-02-23T07:25:28.422Z,87.30
2018-02-23T07:27:57.603Z,87.40
2018-02-23T07:30:25.908Z,87.40
2018-02-23T07:32:54.375Z,88.20
2018-02-23T07:35:22.126Z,87.50
2018-02-23T07:37:49.813Z,87.50
2018-02-23T07:40:18.217Z,87.40
2018-02-23T07:42:46.614Z,87.40
2018-02-23T07:45:15.129Z,87.30
2018-02-23T07:47:43.498Z,86.80
2018-02-23T07:50:11.300Z,87.20
2018-02-23T07:52:39.013Z,87.60
2018-02-23T07:55:07.439Z,86.80
2018-02-23T07:57:35.072Z,86.80
2018-02-23T08:00:02.926Z,87.10
2018-02-23T08:02:31.431Z,87.50
2018-02-23T08:04:59.109Z,87.30
2018-02-23T08:07:26.708Z,87.30
2018-02-23T08:09:54.327Z,87.20
2018-02-23T08:12:22.598Z,86.90
2018-02-23T08:14:50.234Z,86.80
2018-02-23T08:17:17.798Z,86.90
2018-02-23T08:19:47.547Z,86.80
2018-02-23T08:22:15.639Z,86.80
2018-02-23T08:24:43.222Z,86.70
2018-02-23T08:27:11.275Z,86.50
2018-02-23T08:29:38.937Z,86.90
2018-02-23T08:32:06.554Z,86.70
2018-02-23T08:34:35.104Z,86.30
2018-02-23T08:37:02.875Z,86.60
2018-02-23T08:39:30.458Z,86.10
2018-02-23T08:41:59.239Z,85.40
2018-02-23T08:44:26.909Z,85.10
2018-02-23T08:46:54.523Z,85.10
2018-02-23T08:49:22.131Z,84.70
2018-02-23T08:51:49.809Z,84.80
2018-02-23T08:54:18.549Z,84.90
2018-02-23T08:56:46.331Z,85.20
2018-02-23T08:59:13.955Z,84.10
2018-02-23T09:01:41.677Z,83.50
2018-02-23T09:04:10.693Z,83.40
2018-02-23T09:06:38.279Z,82.80
2018-02-23T09:09:05.992Z,82.60
2018-02-23T09:11:33.627Z,81.80
2018-02-23T09:14:01.270Z,81.30
2018-02-23T09:16:29.735Z,81.00
2018-02-23T09:18:59.070Z,81.00
2018-02-23T09:21:26.948Z,80.80
2018-02-23T09:23:54.577Z,79.70
2018-02-23T09:26:23.000Z,78.70
2018-02-23T09:28:50.653Z,78.60
2018-02-23T09:31:18.219Z,79.60
2018-02-23T09:33:57.711Z,78.00
2018-02-23T09:36:25.347Z,77.80
2018-02-23T09:38:53.111Z,76.80
2018-02-23T09:41:20.742Z,76.40
2018-02-23T09:43:48.325Z,75.80
2018-02-23T09:46:15.946Z,75.00
2018-02-23T09:48:43.661Z,74.70
2018-02-23T09:51:12.934Z,72.10
2018-02-23T09:53:40.490Z,72.50
2018-02-23T09:56:09.747Z,71.20
2018-02-23T09:58:37.347Z,71.20
2018-02-23T10:01:04.953Z,70.70
2018-02-23T10:03:32.539Z,69.30
2018-02-23T10:06:00.266Z,68.00
2018-02-23T10:08:27.922Z,68.00
2018-02-23T10:10:56.311Z,67.90
2018-02-23T10:13:23.986Z,67.90
2018-02-23T10:15:52.241Z,67.90
2018-02-23T10:18:20.010Z,66.90
2018-02-23T10:20:47.756Z,66.80
2018-02-23T10:23:15.388Z,63.60
2018-02-23T10:25:42.995Z,64.70
2018-02-23T10:28:10.579Z,62.00
2018-02-23T10:30:38.378Z,61.00
2018-02-23T10:33:05.993Z,60.60
2018-02-23T10:35:34.365Z,59.30
2018-02-23T10:38:02.038Z,59.20
2018-02-23T10:40:29.636Z,57.70
2018-02-23T10:42:57.280Z,58.70
2018-02-23T10:45:25.036Z,58.50
2018-02-23T10:47:53.296Z,58.20
2018-02-23T10:50:21.645Z,58.00
2018-02-23T10:52:49.212Z,57.60
2018-02-23T10:55:17.003Z,56.40
2018-02-23T10:57:46.307Z,57.60
2018-02-23T11:00:14.713Z,56.80
2018-02-23T11:02:42.644Z,56.80
2018-02-23T11:05:10.233Z,56.50
2018-02-23T11:07:37.842Z,56.60
2018-02-23T11:10:05.406Z,55.70
2018-02-23T11:12:33.006Z,56.40
2018-02-23T11:15:00.623Z,55.80
2018-02-23T11:17:28.248Z,56.80
2018-02-23T11:19:55.881Z,55.20
2018-02-23T11:22:23.509Z,54.00
2018-02-23T11:24:51.135Z,55.40
2018-02-23T11:27:18.731Z,54.80
2018-02-23T11:29:47.209Z,54.00
2018-02-23T11:32:14.782Z,54.00
2018-02-23T11:34:42.386Z,55.10
2018-02-23T11:37:09.986Z,55.60
2018-02-23T11:39:38.347Z,55.00
2018-02-23T11:42:06.699Z,55.00
2018-02-23T11:44:34.306Z,54.90
2018-02-23T11:47:01.918Z,55.70
2018-02-23T11:49:29.511Z,55.10
2018-02-23T11:51:57.854Z,56.20
2018-02-23T11:54:25.623Z,55.90
2018-02-23T11:56:53.351Z,55.10
2018-02-23T11:59:20.932Z,52.40
2018-02-23T12:01:48.565Z,51.60
2018-02-23T12:04:16.158Z,51.00
2018-02-23T12:06:43.758Z,50.50
2018-02-23T12:09:11.329Z,50.30
2018-02-23T12:11:38.934Z,50.30
2018-02-23T12:14:06.567Z,50.20
2018-02-23T12:16:34.167Z,48.80
2018-02-23T12:19:01.783Z,48.30
2018-02-23T12:21:29.485Z,47.00
2018-02-23T12:23:57.042Z,47.80
2018-02-23T12:26:24.952Z,48.20
2018-02-23T12:28:52.572Z,49.20
2018-02-23T12:31:20.397Z,49.10
2018-02-23T12:33:48.047Z,50.00
2018-02-23T12:36:15.656Z,50.60
2018-02-23T12:38:44.009Z,50.30
2018-02-23T12:41:11.659Z,50.30
2018-02-23T12:43:39.422Z,49.40
2018-02-23T12:46:07.038Z,50.30
2018-02-23T12:48:35.396Z,49.30
2018-02-23T12:51:03.029Z,49.30
2018-02-23T12:53:30.638Z,48.80
2018-02-23T12:55:58.249Z,48.60
2018-02-23T12:58:25.850Z,48.70
2018-02-23T13:00:53.449Z,48.10
2018-02-23T13:03:21.662Z,47.50
2018-02-23T13:05:49.341Z,46.80
2018-02-23T13:08:17.105Z,46.50
2018-02-23T13:10:44.724Z,46.00
2018-02-23T13:13:12.395Z,47.00
2018-02-23T13:15:41.385Z,47.40
2018-02-23T13:18:09.733Z,47.10
2018-02-23T13:20:39.183Z,46.00
2018-02-23T13:23:06.838Z,46.00
2018-02-23T13:25:36.224Z,46.30
2018-02-23T13:28:10.440Z,44.90
2018-02-23T13:30:38.281Z,44.80
2018-02-23T13:33:06.021Z,44.40
2018-02-23T13:35:34.467Z,43.80
2018-02-23T13:38:02.400Z,43.30
2018-02-23T13:40:31.298Z,44.10
2018-02-23T13:42:59.102Z,44.10
2018-02-23T13:45:26.777Z,44.40
2018-02-23T13:47:56.725Z,43.60
2018-02-23T13:50:24.370Z,44.30
2018-02-23T13:52:51.981Z,43.20
2018-02-23T13:55:19.939Z,45.10
2018-02-23T13:57:48.863Z,45.00
2018-02-23T14:00:16.838Z,44.10
2018-02-23T14:02:44.842Z,43.30
2018-02-23T14:05:12.686Z,44.30
2018-02-23T14:07:44.161Z,44.30
2018-02-23T14:10:12.092Z,44.30
2018-02-23T14:12:40.162Z,44.50
2018-02-23T14:15:09.547Z,45.20
2018-02-23T14:17:51.234Z,45.70
2018-02-23T14:20:18.834Z,45.20
2018-02-23T14:22:47.198Z,43.10
2018-02-23T14:25:14.786Z,43.60
2018-02-23T14:27:42.368Z,43.50
2018-02-23T14:30:10.698Z,41.50
2018-02-23T14:32:38.353Z,41.50
2018-02-23T14:35:05.971Z,38.20
2018-02-23T14:37:34.438Z,35.40
2018-02-23T14:40:02.246Z,35.40
2018-02-23T14:42:30.540Z,38.30
2018-02-23T14:44:59.291Z,36.50
2018-02-23T14:47:27.716Z,34.90
2018-02-23T14:50:08.153Z,34.90
2018-02-23T14:52:35.767Z,33.80
2018-02-23T14:55:04.201Z,34.90
2018-02-23T14:57:31.806Z,34.80
2018-02-23T14:59:59.458Z,35.80
2018-02-23T15:02:27.032Z,37.40
2018-02-23T15:04:54.639Z,36.70
2018-02-23T15:07:22.250Z,35.50
2018-02-23T15:09:50.714Z,33.30
2018-02-23T15:12:18.340Z,32.90
2018-02-23T15:14:45.928Z,30.50
2018-02-23T15:17:14.279Z,28.70
2018-02-23T15:19:42.358Z,28.70
2018-02-23T15:22:09.972Z,28.70
2018-02-23T15:24:37.574Z,26.50
2018-02-23T15:27:05.151Z,27.40
2018-02-23T15:29:33.513Z,27.40
2018-02-23T15:32:12.824Z,27.40
2018-02-23T15:34:40.471Z,28.20
2018-02-23T15:37:08.084Z,30.00
2018-02-23T15:39:35.767Z,30.70
2018-02-23T15:42:03.382Z,30.00
2018-02-23T15:44:30.965Z,29.70
2018-02-23T15:46:59.357Z,29.30
2018-02-23T15:49:41.802Z,29.20
2018-02-23T15:52:14.070Z,29.80
2018-02-23T15:54:42.459Z,27.90
2018-02-23T15:57:12.662Z,27.90
2018-02-23T15:59:41.046Z,27.70
2018-02-23T16:02:09.393Z,28.70
2018-02-23T16:04:37.011Z,28.70
2018-02-23T16:07:04.946Z,28.90
2018-02-23T16:09:32.542Z,29.20
2018-02-23T16:12:00.132Z,30.00
2018-02-23T16:14:27.751Z,31.20
2018-02-23T16:16:56.142Z,32.60
2018-02-23T16:19:23.853Z,32.60
2018-02-23T16:21:52.288Z,33.10
2018-02-23T16:24:20.532Z,32.80
2018-02-23T16:26:48.849Z,32.70
2018-02-23T16:29:17.159Z,33.50
2018-02-23T16:31:44.718Z,33.70
2018-02-23T16:34:12.286Z,34.10
2018-02-23T16:36:39.871Z,33.90
2018-02-23T16:39:07.489Z,33.40
2018-02-23T16:41:35.451Z,35.00
2018-02-23T16:44:03.019Z,35.10
2018-02-23T16:46:30.580Z,33.80
2018-02-23T16:48:58.202Z,34.60
2018-02-23T16:51:26.441Z,35.70
2018-02-23T16:53:54.007Z,35.90
2018-02-23T16:56:21.612Z,37.30
2018-02-23T16:58:50.007Z,38.00
2018-02-23T17:01:17.602Z,38.00
2018-02-23T17:03:45.314Z,38.10
2018-02-23T17:06:12.918Z,38.40
2018-02-23T17:08:40.509Z,37.70
2018-02-23T17:11:08.137Z,38.10
2018-02-23T17:13:35.727Z,39.00
2018-02-23T17:16:03.377Z,39.50
2018-02-23T17:18:30.987Z,40.40
2018-02-23T17:20:58.577Z,41.20
2018-02-23T17:23:26.955Z,44.30
2018-02-23T17:25:54.557Z,44.30
2018-02-23T17:28:22.153Z,45.40
2018-02-23T17:30:49.751Z,46.50
2018-02-23T17:33:18.138Z,48.50
2018-02-23T17:35:45.721Z,48.10
2018-02-23T17:38:13.314Z,48.60
2018-02-23T17:40:41.858Z,49.10
2018-02-23T17:43:10.235Z,49.80
2018-02-23T17:45:37.834Z,49.80
2018-02-23T17:48:06.250Z,49.90
2018-02-23T17:50:33.862Z,50.40
2018-02-23T17:53:01.414Z,51.10
2018-02-23T17:55:29.753Z,52.10
2018-02-23T17:57:57.364Z,52.00
2018-02-23T18:00:24.978Z,52.40
2018-02-23T18:02:52.562Z,52.80
2018-02-23T18:05:23.367Z,53.30
2018-02-23T18:07:50.934Z,53.60
2018-02-23T18:10:20.239Z,54.20
2018-02-23T18:12:47.872Z,54.10
2018-02-23T18:15:15.451Z,54.40
2018-02-23T18:17:43.015Z,54.50
2018-02-23T18:20:10.611Z,55.00
2018-02-23T18:22:38.232Z,55.30
2018-02-23T18:25:05.827Z,55.30
2018-02-23T18:27:33.422Z,55.60
2018-02-23T18:30:01.841Z,55.70
2018-02-23T18:32:29.677Z,55.60
2018-02-23T18:34:57.291Z,55.80
2018-02-23T18:37:24.866Z,55.80
2018-02-23T18:39:52.455Z,55.80
2018-02-23T18:42:20.350Z,56.50
2018-02-23T18:44:48.562Z,56.50
2018-02-23T18:47:16.155Z,57.10
2018-02-23T18:49:43.714Z,57.00
2018-02-23T18:52:11.354Z,57.50
2018-02-23T18:54:39.554Z,57.80
2018-02-23T18:57:07.160Z,58.20
2018-02-23T18:59:34.758Z,58.30
2018-02-23T19:02:02.322Z,59.00
2018-02-23T19:04:30.028Z,59.00
2018-02-23T19:06:57.662Z,58.90
2018-02-23T19:09:25.320Z,59.30
2018-02-23T19:11:52.886Z,59.40
2018-02-23T19:14:20.514Z,59.40
2018-02-23T19:16:48.119Z,60.00
2018-02-23T19:19:17.049Z,60.30
2018-02-23T19:21:44.615Z,60.60
2018-02-23T19:24:12.199Z,60.50
2018-02-23T19:26:39.774Z,60.50
2018-02-23T19:29:07.673Z,60.90
2018-02-23T19:31:35.271Z,61.10
2018-02-23T19:34:02.917Z,61.50
2018-02-23T19:36:30.450Z,61.10
2018-02-23T19:38:58.055Z,61.20
2018-02-23T19:41:25.630Z,61.40
2018-02-23T19:43:53.222Z,61.40
2018-02-23T19:46:20.782Z,61.60
2018-02-23T19:48:48.373Z,61.60
2018-02-23T19:51:17.530Z,61.60
2018-02-23T19:53:45.093Z,61.20
2018-02-23T19:56:12.655Z,61.60
2018-02-23T19:58:40.247Z,61.30
2018-02-23T20:01:08.470Z,62.00
2018-02-23T20:03:36.867Z,62.30
2018-02-23T20:06:04.427Z,62.30
2018-02-23T20:08:32.022Z,62.60
2018-02-23T20:10:59.633Z,62.30
2018-02-23T20:13:27.231Z,63.50
2018-02-23T20:15:54.834Z,62.90
2018-02-23T20:18:22.448Z,62.70
2018-02-23T20:20:50.010Z,62.80
2018-02-23T20:23:17.779Z,63.20
2018-02-23T20:25:45.423Z,63.60
2018-02-23T20:28:13.011Z,63.80
2018-02-23T20:30:40.604Z,64.40
2018-02-23T20:33:08.178Z,64.60
2018-02-23T20:35:35.779Z,64.50
2018-02-23T20:38:04.134Z,64.90
2018-02-23T20:40:31.759Z,64.80
2018-02-23T20:42:59.351Z,65.20
2018-02-23T20:45:26.918Z,65.70
2018-02-23T20:47:54.511Z,66.10
2018-02-23T20:50:22.838Z,65.80
2018-02-23T20:52:50.415Z,66.40
2018-02-23T20:55:18.052Z,66.20
2018-02-23T20:57:45.648Z,66.50
2018-02-23T21:00:13.265Z,66.60
2018-02-23T21:02:40.882Z,66.40
2018-02-23T21:05:08.476Z,66.70
2018-02-23T21:07:36.038Z,67.20
2018-02-23T21:10:03.654Z,67.10
2018-02-23T21:12:31.225Z,66.80
2018-02-23T21:14:58.825Z,66.80
2018-02-23T21:17:27.217Z,66.70
2018-02-23T21:19:54.844Z,67.00
2018-02-23T21:22:22.467Z,66.70
2018-02-23T21:24:50.051Z,66.80
2018-02-23T21:27:17.694Z,67.50
2018-02-23T21:29:45.262Z,67.10
2018-02-23T21:32:12.859Z,67.10
2018-02-23T21:34:40.486Z,68.10
2018-02-23T21:37:08.082Z,67.30
2018-02-23T21:39:35.681Z,67.50
2018-02-23T21:42:04.098Z,66.90
2018-02-23T21:44:43.456Z,67.10
2018-02-23T21:47:11.120Z,67.30
2018-02-23T21:49:38.646Z,67.40
2018-02-23T21:52:06.259Z,67.70
2018-02-23T21:54:33.909Z,67.20
2018-02-23T21:57:01.503Z,67.20
2018-02-23T21:59:30.867Z,67.20
2018-02-23T22:01:58.613Z,67.20
2018-02-23T22:04:26.523Z,66.80
2018-02-23T22:06:54.124Z,66.40
2018-02-23T22:09:21.747Z,66.10
2018-02-23T22:11:49.383Z,66.80
2018-02-23T22:14:16.987Z,66.90
2018-02-23T22:16:44.606Z,66.80
2018-02-23T22:19:12.234Z,66.70
2018-02-23T22:21:39.860Z,66.60
2018-02-23T22:24:07.595Z,66.50
2018-02-23T22:26:35.194Z,66.70
2018-02-23T22:29:02.839Z,66.80
2018-02-23T22:31:30.475Z,66.60
2018-02-23T22:33:58.078Z,66.40
2018-02-23T22:36:25.720Z,66.10
2018-02-23T22:38:53.362Z,66.10
2018-02-23T22:41:21.187Z,66.20
2018-02-23T22:43:48.789Z,65.70
2018-02-23T22:46:16.366Z,66.20
2018-02-23T22:48:43.967Z,66.00
2018-02-23T22:51:13.100Z,66.10
2018-02-23T22:53:40.703Z,66.10
2018-02-23T22:56:08.316Z,66.30
2018-02-23T22:58:36.691Z,66.00
2018-02-23T23:01:04.268Z,65.90
2018-02-23T23:03:32.611Z,65.70
2018-02-23T23:06:00.218Z,65.70
2018-02-23T23:08:28.569Z,66.00
2018-02-23T23:10:56.137Z,66.00
2018-02-23T23:13:23.726Z,65.70
2018-02-23T23:15:51.316Z,65.50
2018-02-23T23:18:18.923Z,65.10
2018-02-23T23:20:46.495Z,65.10
2018-02-23T23:23:14.098Z,65.30
2018-02-23T23:25:41.706Z,65.60
2018-02-23T23:28:09.260Z,65.60
2018-02-23T23:30:36.847Z,66.00
2018-02-23T23:33:06.519Z,67.10
2018-02-23T23:35:34.096Z,66.90
2018-02-23T23:38:01.691Z,66.90
2018-02-23T23:40:30.060Z,67.20
2018-02-23T23:42:59.158Z,67.80
2018-02-23T23:45:26.775Z,67.70
2018-02-23T23:47:54.594Z,68.30
2018-02-23T23:50:23.052Z,67.80
2018-02-23T23:52:50.649Z,67.80
2018-02-23T23:55:18.248Z,68.40
2018-02-23T23:57:45.806Z,68.80
